Buoy 41503

sailwx.info

Track history (hours):
 
Tides and Currents Weather Stations Pressure Air Temp Water Temp Dewpoint Dewpoint Depression Visibility Wind Speed Wind Dir Waves Ship Positions

Drifting buoy 41503

Last reported at 2015-Mar-01 21:02 UTC. Time now 2015-Mar-01 23:27 UTC.
Position N 35°56' W 065°51'.

Water temperature 19.4 ° C

Date/timePositionNaut miles runAvg speedWind from/ knotsBaromVisibWave heightAir tempDewpointWater temp
2015-Mar-01 21:02N 35°56' W 065°51'0 0.3 19.4
2015-Mar-01 20:52N 35°56' W 065°51'1 1.7 19.4
2015-Mar-01 20:31N 35°55' W 065°51'2 0.8 19.4
2015-Mar-01 17:52N 35°54' W 065°53'1 0.7 19.4
2015-Mar-01 16:13N 35°53' W 065°53'24177.0 19.3
2015-Mar-01 16:05N 35°36' W 066°14'2 0.1
2015-Feb-28 14:50N 35°35' W 066°16'0 0.0 19.3
2015-Feb-28 13:58N 35°35' W 066°16'0 0.0 19.3
2015-Feb-28 13:07N 35°35' W 066°16'0 0.0 19.3
2015-Feb-28 11:25N 35°35' W 066°16'0 0.0 19.3
2015-Feb-28 11:16N 35°35' W 066°16'1 1.0 19.3
2015-Feb-28 09:48N 35°34' W 066°18'0 1.3 19.2
2015-Feb-28 09:37N 35°34' W 066°18'3 2.2 19.2
2015-Feb-28 08:15N 35°33' W 066°22'0 0.0 19.2
2015-Feb-28 08:03N 35°33' W 066°22'2 8.8 19.2
2015-Feb-28 07:52N 35°34' W 066°20'2 1.4 19.2
2015-Feb-28 06:41N 35°33' W 066°22'3 1.8 19.2
2015-Feb-28 04:52N 35°32' W 066°26'2 0.5
2015-Feb-28 01:39N 35°32' W 066°28'1 5.6 19.1
2015-Feb-28 01:29N 35°32' W 066°29'0 0.0 19.1
2015-Feb-28 00:51N 35°32' W 066°29'1 0.7 19.1
2015-Feb-27 23:53N 35°32' W 066°30'128.0 19.1
2015-Feb-27 23:50N 35°32' W 066°32'0 0.1 19.1
2015-Feb-27 22:59N 35°32' W 066°32'330.5 19.1
2015-Feb-27 22:54N 35°32' W 066°35'1 0.5 19.1
2015-Feb-27 21:17N 35°32' W 066°36'1 0.4 19.1
2015-Feb-27 18:19N 35°32' W 066°37'2 1.4 19.1
2015-Feb-27 16:35N 35°32' W 066°40'1 1.0 19.1
2015-Feb-27 15:57N 35°32' W 066°41'1 1.5 19.1
2015-Feb-27 15:07N 35°32' W 066°42'116.5 19.1
2015-Feb-27 15:03N 35°33' W 066°43'0 0.0 19.2
2015-Feb-27 14:19N 35°33' W 066°43'1 1.0 19.2
2015-Feb-27 13:25N 35°33' W 066°45'263.8 19.2
2015-Feb-27 13:23N 35°34' W 066°47'0 0.0 19.1
2015-Feb-27 12:33N 35°34' W 066°47'0 0.0 19.1
2015-Feb-27 11:48N 35°34' W 066°47'0 1.8 19.1
2015-Feb-27 11:38N 35°34' W 066°47'228.5 19.2
2015-Feb-27 11:33N 35°35' W 066°50'0 0.0 19.2
2015-Feb-27 10:07N 35°35' W 066°50'0 2.3 19.2
2015-Feb-27 10:03N 35°35' W 066°50'2 8.6 19.2
2015-Feb-27 09:49N 35°36' W 066°52'0 0.2 19.1
2015-Feb-27 08:32N 35°36' W 066°51'0 0.0
2015-Feb-27 08:31N 35°36' W 066°51'1 5.9 19.1
2015-Feb-27 08:25N 35°36' W 066°52'0 0.8 19.1
2015-Feb-27 08:14N 35°36' W 066°52'5 3.2 19.1
2015-Feb-27 06:44N 35°38' W 066°57'0 0.0 19.1
2015-Feb-27 06:42N 35°38' W 066°57'0 0.0 19.1
2015-Feb-27 05:07N 35°38' W 066°57'3 1.2 19.2
2015-Feb-27 02:49N 35°39' W 067°00'1 1.1 19.2
2015-Feb-27 02:00N 35°39' W 067°01'0 0.5 19.2
2015-Feb-27 01:53N 35°39' W 067°01'129.4 19.2
2015-Feb-27 01:50N 35°39' W 067°03'0 0.0 19.2
2015-Feb-27 01:04N 35°39' W 067°03'148.0 19.2
2015-Feb-27 01:03N 35°39' W 067°04'2 1.4 19.2
2015-Feb-26 23:20N 35°40' W 067°07'2 0.5 19.2
2015-Feb-26 20:07N 35°40' W 067°09'0 3.2 19.1
2015-Feb-26 20:04N 35°40' W 067°09'3 1.6 19.1
2015-Feb-26 18:19N 35°39' W 067°13'0 0.0 19.2
2015-Feb-26 16:47N 35°39' W 067°13'1 2.4 19.2
2015-Feb-26 16:16N 35°39' W 067°14'0 0.0 19.2
2015-Feb-26 15:32N 35°39' W 067°14'1 5.7 19.2
2015-Feb-26 15:24N 35°38' W 067°14'0 0.0 19.2
2015-Feb-26 14:41N 35°38' W 067°14'1 1.1 19.2
2015-Feb-26 13:50N 35°38' W 067°15'2 1.8 19.1
2015-Feb-26 12:52N 35°37' W 067°17'0 0.0 19.2
2015-Feb-26 12:15N 35°37' W 067°17'0 0.0 19.3
2015-Feb-26 12:05N 35°37' W 067°17'1 2.5 19.3
2015-Feb-26 11:48N 35°37' W 067°16'1 0.8 19.3
2015-Feb-26 10:29N 35°36' W 067°17'1 2.3 19.4
2015-Feb-26 10:06N 35°36' W 067°18'0 0.0 19.4
2015-Feb-26 09:01N 35°36' W 067°18'0 0.7 19.4
2015-Feb-26 08:41N 35°37' W 067°18'2 5.6 19.4
2015-Feb-26 08:21N 35°38' W 067°20'0 0.0
2015-Feb-26 07:05N 35°38' W 067°20'0 0.0 19.4
2015-Feb-26 06:53N 35°38' W 067°20'1 0.1 19.4
2015-Feb-26 03:05N 35°38' W 067°20'0 0.0 19.4
2015-Feb-26 02:20N 35°38' W 067°20'1 7.5 19.4
2015-Feb-26 02:11N 35°38' W 067°21'0 0.0 19.4
2015-Feb-26 01:26N 35°38' W 067°21'1 1.0 19.4
2015-Feb-26 00:38N 35°39' W 067°21'114.8 19.4
2015-Feb-26 00:32N 35°40' W 067°22'0 0.0 19.4
2015-Feb-25 23:50N 35°40' W 067°22'0 0.0 19.4
2015-Feb-25 22:06N 35°40' W 067°22'0 4.6 19.4
2015-Feb-25 22:02N 35°40' W 067°22'0 0.0 19.4
2015-Feb-25 21:47N 35°40' W 067°22'0 1.5 19.4
2015-Feb-25 21:45N 35°40' W 067°23'0 4.5 19.4
2015-Feb-25 21:41N 35°40' W 067°23'1 0.5 19.4
2015-Feb-25 20:30N 35°41' W 067°23'135.2 19.4
2015-Feb-25 20:29N 35°41' W 067°24'0 0.1 19.4
2015-Feb-25 20:06N 35°41' W 067°24'1 0.6 19.4
2015-Feb-25 18:41N 35°41' W 067°25'1 8.5 19.4
2015-Feb-25 18:32N 35°41' W 067°26'0 0.1 19.4
2015-Feb-25 16:52N 35°41' W 067°26'0 0.4 19.4
2015-Feb-25 15:49N 35°42' W 067°26'0 0.5 19.4
2015-Feb-25 15:01N 35°42' W 067°26'0 0.3 19.3
2015-Feb-25 14:07N 35°42' W 067°27'29 0.8 19.2
2015-Feb-24 02:05N 36°07' W 067°07'0 0.1 19.3
2015-Feb-24 01:20N 36°07' W 067°07'1 8.0 19.3
2015-Feb-24 01:12N 36°08' W 067°06'0 0.1 19.3
2015-Feb-24 00:32N 36°08' W 067°06'1 1.4 19.3
2015-Feb-23 23:39N 36°08' W 067°05'0 0.0 19.3
2015-Feb-23 22:53N 36°08' W 067°05'0 0.0 19.3
2015-Feb-23 22:50N 36°08' W 067°05'2 2.5 19.3
2015-Feb-23 22:06N 36°09' W 067°05'027.4 19.3
2015-Feb-23 22:05N 36°09' W 067°04'1 1.2 19.3
2015-Feb-23 21:21N 36°10' W 067°04'1 1.9 19.3
2015-Feb-23 21:01N 36°10' W 067°04'0 0.0 19.3
2015-Feb-23 20:30N 36°10' W 067°04'1 1.2 19.3
2015-Feb-23 19:37N 36°10' W 067°03'0 0.4 19.3
2015-Feb-23 19:03N 36°10' W 067°03'0 1.7 19.3
2015-Feb-23 18:53N 36°10' W 067°03'1 0.4 19.3
2015-Feb-23 17:23N 36°10' W 067°03'1 0.7 19.3
2015-Feb-23 15:41N 36°10' W 067°01'0 0.0 19.4
2015-Feb-23 14:51N 36°10' W 067°01'0 2.0 19.3
2015-Feb-23 14:44N 36°10' W 067°01'0 0.0 19.3
2015-Feb-23 14:01N 36°10' W 067°01'0 0.6 19.3
2015-Feb-23 13:12N 36°10' W 067°00'1 0.6 19.3
2015-Feb-23 11:40N 36°09' W 066°59'1 0.6 19.3
2015-Feb-23 10:44N 36°10' W 066°59'0 1.9 19.3
2015-Feb-23 10:36N 36°09' W 066°59'1 1.3 19.3
2015-Feb-23 10:02N 36°09' W 066°58'1 3.5 19.3
2015-Feb-23 09:52N 36°10' W 066°57'0 0.0 19.3
2015-Feb-23 09:14N 36°10' W 066°57'0 2.6 19.3
2015-Feb-23 09:11N 36°10' W 066°57'0 0.0 19.3
2015-Feb-23 09:04N 36°10' W 066°57'0 0.0 19.3
2015-Feb-23 09:01N 36°10' W 066°57'118.4 19.3
2015-Feb-23 08:57N 36°10' W 066°56'110.1 19.3
2015-Feb-23 08:52N 36°09' W 066°57'1 0.5 19.3
2015-Feb-23 07:39N 36°10' W 066°56'1 5.1 19.3
2015-Feb-23 07:29N 36°10' W 066°55'0 0.0 19.3
2015-Feb-23 05:53N 36°10' W 066°55'229.5 19.3
2015-Feb-23 05:48N 36°09' W 066°52'0 0.0 19.3
2015-Feb-23 03:20N 36°09' W 066°52'0 0.1 19.3
2015-Feb-23 02:30N 36°09' W 066°52'2 1.8 19.3
2015-Feb-23 01:33N 36°09' W 066°50'1 1.9 19.3
2015-Feb-23 00:52N 36°09' W 066°48'0 0.0 19.3
2015-Feb-23 00:01N 36°09' W 066°48'212.9 19.3
2015-Feb-22 23:53N 36°08' W 066°46'0 0.0 19.3
2015-Feb-22 23:22N 36°08' W 066°46'0 0.0 19.3
2015-Feb-22 22:21N 36°08' W 066°46'0 0.9 19.3
2015-Feb-22 22:16N 36°08' W 066°46'1 1.8 19.3
2015-Feb-22 21:45N 36°08' W 066°45'1 0.6 19.3
2015-Feb-22 20:41N 36°08' W 066°45'2 3.8 19.3
2015-Feb-22 20:05N 36°08' W 066°42'115.6 19.3
2015-Feb-22 20:02N 36°07' W 066°42'0 0.0 19.3
2015-Feb-22 19:14N 36°07' W 066°42'0 1.8 19.3
2015-Feb-22 19:06N 36°07' W 066°42'1 4.7 19.3
2015-Feb-22 18:59N 36°07' W 066°41'1 1.0 19.3
2015-Feb-22 17:33N 36°06' W 066°40'4 2.3 19.3
2015-Feb-22 16:01N 36°04' W 066°36'1 6.7 19.3
2015-Feb-22 15:50N 36°05' W 066°34'0 0.0 19.3
2015-Feb-22 15:14N 36°05' W 066°34'   19.2
Track history (hours):
 
Tides and Currents Weather Stations Pressure Air Temp Water Temp Dewpoint Dewpoint Depression Visibility Wind Speed Wind Dir Waves Ship Positions

Drifting buoy 41503

Last reported at 2015-Mar-01 21:02 UTC. Time now 2015-Mar-01 23:27 UTC.
Position N 35°56' W 065°51'.

Water temperature 19.4 ° C

Date/timePositionNaut miles runAvg speedWind from/ knotsBaromVisibWave heightAir tempDewpointWater temp
2015-Mar-01 21:02N 35°56' W 065°51'0 0.3 19.4
2015-Mar-01 20:52N 35°56' W 065°51'1 1.7 19.4
2015-Mar-01 20:31N 35°55' W 065°51'2 0.8 19.4
2015-Mar-01 17:52N 35°54' W 065°53'1 0.7 19.4
2015-Mar-01 16:13N 35°53' W 065°53'24177.0 19.3
2015-Mar-01 16:05N 35°36' W 066°14'2 0.1
2015-Feb-28 14:50N 35°35' W 066°16'0 0.0 19.3
2015-Feb-28 13:58N 35°35' W 066°16'0 0.0 19.3
2015-Feb-28 13:07N 35°35' W 066°16'0 0.0 19.3
2015-Feb-28 11:25N 35°35' W 066°16'0 0.0 19.3
2015-Feb-28 11:16N 35°35' W 066°16'1 1.0 19.3
2015-Feb-28 09:48N 35°34' W 066°18'0 1.3 19.2
2015-Feb-28 09:37N 35°34' W 066°18'3 2.2 19.2
2015-Feb-28 08:15N 35°33' W 066°22'0 0.0 19.2
2015-Feb-28 08:03N 35°33' W 066°22'2 8.8 19.2
2015-Feb-28 07:52N 35°34' W 066°20'2 1.4 19.2
2015-Feb-28 06:41N 35°33' W 066°22'3 1.8 19.2
2015-Feb-28 04:52N 35°32' W 066°26'2 0.5
2015-Feb-28 01:39N 35°32' W 066°28'1 5.6 19.1
2015-Feb-28 01:29N 35°32' W 066°29'0 0.0 19.1
2015-Feb-28 00:51N 35°32' W 066°29'1 0.7 19.1
2015-Feb-27 23:53N 35°32' W 066°30'128.0 19.1
2015-Feb-27 23:50N 35°32' W 066°32'0 0.1 19.1
2015-Feb-27 22:59N 35°32' W 066°32'330.5 19.1
2015-Feb-27 22:54N 35°32' W 066°35'1 0.5 19.1
2015-Feb-27 21:17N 35°32' W 066°36'1 0.4 19.1
2015-Feb-27 18:19N 35°32' W 066°37'2 1.4 19.1
2015-Feb-27 16:35N 35°32' W 066°40'1 1.0 19.1
2015-Feb-27 15:57N 35°32' W 066°41'1 1.5 19.1
2015-Feb-27 15:07N 35°32' W 066°42'116.5 19.1
2015-Feb-27 15:03N 35°33' W 066°43'0 0.0 19.2
2015-Feb-27 14:19N 35°33' W 066°43'1 1.0 19.2
2015-Feb-27 13:25N 35°33' W 066°45'263.8 19.2
2015-Feb-27 13:23N 35°34' W 066°47'0 0.0 19.1
2015-Feb-27 12:33N 35°34' W 066°47'0 0.0 19.1
2015-Feb-27 11:48N 35°34' W 066°47'0 1.8 19.1
2015-Feb-27 11:38N 35°34' W 066°47'228.5 19.2
2015-Feb-27 11:33N 35°35' W 066°50'0 0.0 19.2
2015-Feb-27 10:07N 35°35' W 066°50'0 2.3 19.2
2015-Feb-27 10:03N 35°35' W 066°50'2 8.6 19.2
2015-Feb-27 09:49N 35°36' W 066°52'0 0.2 19.1
2015-Feb-27 08:32N 35°36' W 066°51'0 0.0
2015-Feb-27 08:31N 35°36' W 066°51'1 5.9 19.1
2015-Feb-27 08:25N 35°36' W 066°52'0 0.8 19.1
2015-Feb-27 08:14N 35°36' W 066°52'5 3.2 19.1
2015-Feb-27 06:44N 35°38' W 066°57'0 0.0 19.1
2015-Feb-27 06:42N 35°38' W 066°57'0 0.0 19.1
2015-Feb-27 05:07N 35°38' W 066°57'3 1.2 19.2
2015-Feb-27 02:49N 35°39' W 067°00'1 1.1 19.2
2015-Feb-27 02:00N 35°39' W 067°01'0 0.5 19.2
2015-Feb-27 01:53N 35°39' W 067°01'129.4 19.2
2015-Feb-27 01:50N 35°39' W 067°03'0 0.0 19.2
2015-Feb-27 01:04N 35°39' W 067°03'148.0 19.2
2015-Feb-27 01:03N 35°39' W 067°04'2 1.4 19.2
2015-Feb-26 23:20N 35°40' W 067°07'2 0.5 19.2
2015-Feb-26 20:07N 35°40' W 067°09'0 3.2 19.1
2015-Feb-26 20:04N 35°40' W 067°09'3 1.6 19.1
2015-Feb-26 18:19N 35°39' W 067°13'0 0.0 19.2
2015-Feb-26 16:47N 35°39' W 067°13'1 2.4 19.2
2015-Feb-26 16:16N 35°39' W 067°14'0 0.0 19.2
2015-Feb-26 15:32N 35°39' W 067°14'1 5.7 19.2
2015-Feb-26 15:24N 35°38' W 067°14'0 0.0 19.2
2015-Feb-26 14:41N 35°38' W 067°14'1 1.1 19.2
2015-Feb-26 13:50N 35°38' W 067°15'2 1.8 19.1
2015-Feb-26 12:52N 35°37' W 067°17'0 0.0 19.2
2015-Feb-26 12:15N 35°37' W 067°17'0 0.0 19.3
2015-Feb-26 12:05N 35°37' W 067°17'1 2.5 19.3
2015-Feb-26 11:48N 35°37' W 067°16'1 0.8 19.3
2015-Feb-26 10:29N 35°36' W 067°17'1 2.3 19.4
2015-Feb-26 10:06N 35°36' W 067°18'0 0.0 19.4
2015-Feb-26 09:01N 35°36' W 067°18'0 0.7 19.4
2015-Feb-26 08:41N 35°37' W 067°18'2 5.6 19.4
2015-Feb-26 08:21N 35°38' W 067°20'0 0.0
2015-Feb-26 07:05N 35°38' W 067°20'0 0.0 19.4
2015-Feb-26 06:53N 35°38' W 067°20'1 0.1 19.4
2015-Feb-26 03:05N 35°38' W 067°20'0 0.0 19.4
2015-Feb-26 02:20N 35°38' W 067°20'1 7.5 19.4
2015-Feb-26 02:11N 35°38' W 067°21'0 0.0 19.4
2015-Feb-26 01:26N 35°38' W 067°21'1 1.0 19.4
2015-Feb-26 00:38N 35°39' W 067°21'114.8 19.4
2015-Feb-26 00:32N 35°40' W 067°22'0 0.0 19.4
2015-Feb-25 23:50N 35°40' W 067°22'0 0.0 19.4
2015-Feb-25 22:06N 35°40' W 067°22'0 4.6 19.4
2015-Feb-25 22:02N 35°40' W 067°22'0 0.0 19.4
2015-Feb-25 21:47N 35°40' W 067°22'0 1.5 19.4
2015-Feb-25 21:45N 35°40' W 067°23'0 4.5 19.4
2015-Feb-25 21:41N 35°40' W 067°23'1 0.5 19.4
2015-Feb-25 20:30N 35°41' W 067°23'135.2 19.4
2015-Feb-25 20:29N 35°41' W 067°24'0 0.1 19.4
2015-Feb-25 20:06N 35°41' W 067°24'1 0.6 19.4
2015-Feb-25 18:41N 35°41' W 067°25'1 8.5 19.4
2015-Feb-25 18:32N 35°41' W 067°26'0 0.1 19.4
2015-Feb-25 16:52N 35°41' W 067°26'0 0.4 19.4
2015-Feb-25 15:49N 35°42' W 067°26'0 0.5 19.4
2015-Feb-25 15:01N 35°42' W 067°26'0 0.3 19.3
2015-Feb-25 14:07N 35°42' W 067°27'29 0.8 19.2
2015-Feb-24 02:05N 36°07' W 067°07'0 0.1 19.3
2015-Feb-24 01:20N 36°07' W 067°07'1 8.0 19.3
2015-Feb-24 01:12N 36°08' W 067°06'0 0.1 19.3
2015-Feb-24 00:32N 36°08' W 067°06'1 1.4 19.3
2015-Feb-23 23:39N 36°08' W 067°05'0 0.0 19.3
2015-Feb-23 22:53N 36°08' W 067°05'0 0.0 19.3
2015-Feb-23 22:50N 36°08' W 067°05'2 2.5 19.3
2015-Feb-23 22:06N 36°09' W 067°05'027.4 19.3
2015-Feb-23 22:05N 36°09' W 067°04'1 1.2 19.3
2015-Feb-23 21:21N 36°10' W 067°04'1 1.9 19.3
2015-Feb-23 21:01N 36°10' W 067°04'0 0.0 19.3
2015-Feb-23 20:30N 36°10' W 067°04'1 1.2 19.3
2015-Feb-23 19:37N 36°10' W 067°03'0 0.4 19.3
2015-Feb-23 19:03N 36°10' W 067°03'0 1.7 19.3
2015-Feb-23 18:53N 36°10' W 067°03'1 0.4 19.3
2015-Feb-23 17:23N 36°10' W 067°03'1 0.7 19.3
2015-Feb-23 15:41N 36°10' W 067°01'0 0.0 19.4
2015-Feb-23 14:51N 36°10' W 067°01'0 2.0 19.3
2015-Feb-23 14:44N 36°10' W 067°01'0 0.0 19.3
2015-Feb-23 14:01N 36°10' W 067°01'0 0.6 19.3
2015-Feb-23 13:12N 36°10' W 067°00'1 0.6 19.3
2015-Feb-23 11:40N 36°09' W 066°59'1 0.6 19.3
2015-Feb-23 10:44N 36°10' W 066°59'0 1.9 19.3
2015-Feb-23 10:36N 36°09' W 066°59'1 1.3 19.3
2015-Feb-23 10:02N 36°09' W 066°58'1 3.5 19.3
2015-Feb-23 09:52N 36°10' W 066°57'0 0.0 19.3
2015-Feb-23 09:14N 36°10' W 066°57'0 2.6 19.3
2015-Feb-23 09:11N 36°10' W 066°57'0 0.0 19.3
2015-Feb-23 09:04N 36°10' W 066°57'0 0.0 19.3
2015-Feb-23 09:01N 36°10' W 066°57'118.4 19.3
2015-Feb-23 08:57N 36°10' W 066°56'110.1 19.3
2015-Feb-23 08:52N 36°09' W 066°57'1 0.5 19.3
2015-Feb-23 07:39N 36°10' W 066°56'1 5.1 19.3
2015-Feb-23 07:29N 36°10' W 066°55'0 0.0 19.3
2015-Feb-23 05:53N 36°10' W 066°55'229.5 19.3
2015-Feb-23 05:48N 36°09' W 066°52'0 0.0 19.3
2015-Feb-23 03:20N 36°09' W 066°52'0 0.1 19.3
2015-Feb-23 02:30N 36°09' W 066°52'2 1.8 19.3
2015-Feb-23 01:33N 36°09' W 066°50'1 1.9 19.3
2015-Feb-23 00:52N 36°09' W 066°48'0 0.0 19.3
2015-Feb-23 00:01N 36°09' W 066°48'212.9 19.3
2015-Feb-22 23:53N 36°08' W 066°46'0 0.0 19.3
2015-Feb-22 23:22N 36°08' W 066°46'0 0.0 19.3
2015-Feb-22 22:21N 36°08' W 066°46'0 0.9 19.3
2015-Feb-22 22:16N 36°08' W 066°46'1 1.8 19.3
2015-Feb-22 21:45N 36°08' W 066°45'1 0.6 19.3
2015-Feb-22 20:41N 36°08' W 066°45'2 3.8 19.3
2015-Feb-22 20:05N 36°08' W 066°42'115.6 19.3
2015-Feb-22 20:02N 36°07' W 066°42'0 0.0 19.3
2015-Feb-22 19:14N 36°07' W 066°42'0 1.8 19.3
2015-Feb-22 19:06N 36°07' W 066°42'1 4.7 19.3
2015-Feb-22 18:59N 36°07' W 066°41'1 1.0 19.3
2015-Feb-22 17:33N 36°06' W 066°40'4 2.3 19.3
2015-Feb-22 16:01N 36°04' W 066°36'1 6.7 19.3
2015-Feb-22 15:50N 36°05' W 066°34'0 0.0 19.3
2015-Feb-22 15:14N 36°05' W 066°34'   19.2

Dump ship's entire track history